Time;durP1;ratioP1;P1;durP2;ratioP2;P2;SDS_P1;SDS_P2;PMS_P1;PMS_P2;Temp;Humidity;BMP_temperature;BMP_pressure;BME280_temperature;BME280_humidity;BME280_pressure;Samples;Min_cycle;Max_cycle;Signal;HPM_P1;HPM_P2
2021/01/10 00:02:20;;;;;;;18.90;9.33;;;-1.20;92.40;;;;;;5044878;28;20185;-73
2021/01/10 00:04:46;;;;;;;22.17;9.87;;;-1.20;92.30;;;;;;5046550;28;20208;-73
2021/01/10 00:07:11;;;;;;;20.03;9.70;;;-1.10;92.30;;;;;;5058232;28;20193;-73
2021/01/10 00:09:37;;;;;;;22.00;9.40;;;-1.10;92.30;;;;;;5056468;28;20193;-73
2021/01/10 00:12:03;;;;;;;20.57;9.80;;;-1.00;92.30;;;;;;5055000;28;20184;-72
2021/01/10 00:14:29;;;;;;;20.85;10.40;;;-1.00;91.90;;;;;;5048784;28;20265;-73
2021/01/10 00:16:55;;;;;;;19.53;8.53;;;-1.00;91.70;;;;;;5049936;28;20227;-72
2021/01/10 00:19:20;;;;;;;19.00;9.97;;;-1.00;91.50;;;;;;5059495;28;20194;-72
2021/01/10 00:21:46;;;;;;;19.67;9.27;;;-1.00;91.40;;;;;;5048552;28;20184;-72
2021/01/10 00:24:12;;;;;;;23.37;10.40;;;-1.00;91.50;;;;;;5054438;28;20890;-72
2021/01/10 00:26:38;;;;;;;27.40;11.53;;;-1.10;91.50;;;;;;5048127;28;20196;-72
2021/01/10 00:29:08;;;;;;;23.17;10.07;;;-1.10;91.60;;;;;;5067009;28;20426;-73
2021/01/10 00:31:37;;;;;;;24.70;13.00;;;-1.10;91.70;;;;;;5055174;28;20434;-73
2021/01/10 00:34:04;;;;;;;25.02;11.88;;;-1.20;91.80;;;;;;5055516;28;20231;-72
2021/01/10 00:36:34;;;;;;;29.45;13.07;;;-1.10;92.30;;;;;;5053416;28;20718;-73
2021/01/10 00:39:00;;;;;;;28.25;13.63;;;-1.10;92.40;;;;;;5050822;28;20319;-73
2021/01/10 00:41:26;;;;;;;26.57;12.80;;;-1.10;92.50;;;;;;5058542;28;20212;-72
2021/01/10 00:43:52;;;;;;;27.37;13.30;;;-1.10;92.70;;;;;;5063128;28;20475;-73
2021/01/10 00:46:17;;;;;;;30.53;13.80;;;-1.00;92.90;;;;;;5050207;28;21046;-71
2021/01/10 00:48:43;;;;;;;38.73;17.37;;;-0.90;93.00;;;;;;5069408;28;20195;-72
2021/01/10 00:51:15;;;;;;;36.27;15.40;;;-0.90;93.10;;;;;;5069120;28;20225;-72
2021/01/10 00:53:41;;;;;;;38.60;17.08;;;-0.90;93.20;;;;;;5069620;28;20188;-72
2021/01/10 00:56:08;;;;;;;36.28;18.55;;;-0.90;93.30;;;;;;5049971;28;20185;-71
2021/01/10 00:58:34;;;;;;;36.20;17.63;;;-0.90;93.50;;;;;;5049356;28;20836;-71
2021/01/10 01:01:01;;;;;;;38.67;18.98;;;-0.90;93.70;;;;;;5049083;28;20192;-72
2021/01/10 01:03:27;;;;;;;40.88;19.40;;;-0.90;93.80;;;;;;5049015;28;20533;-72
2021/01/10 01:05:52;;;;;;;34.53;17.63;;;-1.00;93.70;;;;;;5055552;28;20179;-72
2021/01/10 01:08:18;;;;;;;34.60;15.83;;;-0.90;93.90;;;;;;5060774;28;20191;-73
2021/01/10 01:10:45;;;;;;;40.50;17.80;;;-0.80;94.00;;;;;;5060218;28;20261;-72
2021/01/10 01:13:11;;;;;;;38.70;18.80;;;-0.80;93.80;;;;;;5062855;28;20194;-72
2021/01/10 01:15:37;;;;;;;34.90;16.58;;;-0.80;93.50;;;;;;5066155;28;20280;-72
2021/01/10 01:18:03;;;;;;;38.23;18.20;;;-0.80;93.40;;;;;;5057025;28;20219;-71
2021/01/10 01:20:28;;;;;;;31.97;16.30;;;-0.80;93.30;;;;;;5053668;28;20442;-72
2021/01/10 01:22:54;;;;;;;40.33;19.80;;;-0.80;93.30;;;;;;5051318;28;20427;-73
2021/01/10 01:25:20;;;;;;;35.53;17.33;;;-0.80;93.50;;;;;;5047133;28;20204;-71
2021/01/10 01:27:45;;;;;;;39.27;19.10;;;-0.80;93.60;;;;;;5064662;28;20218;-72
2021/01/10 01:30:11;;;;;;;44.23;20.23;;;-0.80;93.50;;;;;;5059418;28;20227;-72
2021/01/10 01:32:37;;;;;;;42.28;20.42;;;-0.80;93.60;;;;;;5050334;28;20196;-72
2021/01/10 01:35:05;;;;;;;41.87;19.17;;;-0.80;93.60;;;;;;5067107;28;20218;-71
2021/01/10 01:37:33;;;;;;;45.70;19.45;;;-0.80;93.70;;;;;;5066795;28;20925;-73
2021/01/10 01:39:58;;;;;;;35.85;19.30;;;-0.90;93.60;;;;;;5067412;28;20188;-73
2021/01/10 01:42:24;;;;;;;40.47;19.40;;;-0.90;93.90;;;;;;5052040;28;20184;-72
2021/01/10 01:44:50;;;;;;;33.37;18.43;;;-0.90;94.00;;;;;;5051313;28;20212;-72
2021/01/10 01:47:18;;;;;;;50.20;20.70;;;-0.80;94.00;;;;;;5052075;28;20310;-72
2021/01/10 01:49:47;;;;;;;36.65;18.15;;;-0.80;94.00;;;;;;5049186;28;20230;-73
2021/01/10 01:52:13;;;;;;;38.45;19.65;;;-0.90;94.00;;;;;;5060433;28;20830;-71
2021/01/10 01:54:39;;;;;;;42.20;19.48;;;-0.90;94.10;;;;;;5046667;28;20212;-72
2021/01/10 01:57:05;;;;;;;39.10;18.07;;;-0.90;94.10;;;;;;5048361;28;20212;-72
2021/01/10 01:59:31;;;;;;;43.13;19.90;;;-1.00;94.10;;;;;;5067638;28;21361;-73
2021/01/10 02:01:57;;;;;;;40.37;18.37;;;-1.00;94.30;;;;;;5067591;28;20188;-72
2021/01/10 02:04:53;;;;;;;46.70;19.97;;;-1.00;94.50;;;;;;5066356;28;20210;-71
2021/01/10 02:07:30;;;;;;;37.92;17.45;;;-0.90;94.40;;;;;;5048469;28;20283;-73
2021/01/10 02:10:04;;;;;;;32.42;15.88;;;-0.90;94.10;;;;;;5046524;28;20246;-72
2021/01/10 02:12:32;;;;;;;35.35;15.95;;;-0.90;94.00;;;;;;5067470;28;20669;-72
2021/01/10 02:15:12;;;;;;;30.88;15.82;;;-0.80;93.70;;;;;;5064912;28;20203;-72
2021/01/10 02:17:41;;;;;;;33.63;16.63;;;-0.80;93.20;;;;;;5056866;28;20312;-73
2021/01/10 02:20:07;;;;;;;35.67;16.48;;;-0.90;93.00;;;;;;5045659;28;20185;-72
2021/01/10 02:22:41;;;;;;;34.95;15.07;;;-0.90;93.10;;;;;;5047672;28;20204;-73
2021/01/10 02:25:08;;;;;;;36.45;16.65;;;-1.00;93.20;;;;;;5042727;28;20940;-70
2021/01/10 02:27:34;;;;;;;28.60;13.68;;;-1.00;93.10;;;;;;5056449;28;20196;-71
2021/01/10 02:30:00;;;;;;;31.00;15.37;;;-1.00;93.20;;;;;;5056367;28;20188;-69
2021/01/10 02:32:30;;;;;;;31.08;15.27;;;-1.10;93.20;;;;;;5068508;28;20195;-72
2021/01/10 02:34:58;;;;;;;26.00;13.02;;;-1.10;93.30;;;;;;5052225;28;20226;-71
2021/01/10 02:37:39;;;;;;;35.15;14.85;;;-1.20;93.40;;;;;;5064331;28;20276;-72
2021/01/10 02:40:05;;;;;;;26.90;13.82;;;-1.20;93.50;;;;;;5061954;28;20180;-72
2021/01/10 02:42:38;;;;;;;29.00;12.93;;;-1.30;93.50;;;;;;5052308;28;20664;-73
2021/01/10 02:45:09;;;;;;;26.98;13.70;;;-1.30;93.60;;;;;;5059228;28;20435;-72
2021/01/10 02:47:37;;;;;;;24.85;13.18;;;-1.40;93.60;;;;;;5047969;28;20326;-73
2021/01/10 02:50:05;;;;;;;25.13;12.23;;;-1.40;93.70;;;;;;5049115;28;20195;-72
2021/01/10 02:52:31;;;;;;;26.27;12.07;;;-1.50;93.80;;;;;;5048934;28;20192;-73
2021/01/10 02:54:58;;;;;;;27.50;12.13;;;-1.50;93.90;;;;;;5047821;28;20216;-72
2021/01/10 02:57:35;;;;;;;31.52;12.68;;;-1.60;93.90;;;;;;5047140;28;20217;-73
2021/01/10 03:00:04;;;;;;;26.40;11.60;;;-1.60;94.00;;;;;;5048988;28;20183;-72
2021/01/10 03:02:30;;;;;;;34.10;13.30;;;-1.70;94.00;;;;;;5047933;28;20246;-71
2021/01/10 03:04:56;;;;;;;20.40;10.20;;;-1.80;94.20;;;;;;5048494;28;20213;-72
2021/01/10 03:07:22;;;;;;;28.38;11.52;;;-1.80;94.20;;;;;;5050196;28;20191;-73
2021/01/10 03:09:48;;;;;;;23.53;12.27;;;-1.80;94.40;;;;;;5050494;28;20271;-73
2021/01/10 03:12:25;;;;;;;21.90;10.70;;;-1.80;94.40;;;;;;5048211;28;20524;-72
2021/01/10 03:14:58;;;;;;;25.95;11.80;;;-1.90;94.40;;;;;;5049093;28;20212;-72
2021/01/10 03:17:36;;;;;;;23.00;10.20;;;-1.90;94.40;;;;;;5056644;28;20231;-74
2021/01/10 03:20:07;;;;;;;27.42;12.00;;;-1.90;94.50;;;;;;5069222;28;20187;-72
2021/01/10 03:22:33;;;;;;;20.58;10.15;;;-2.00;94.60;;;;;;5068548;28;20267;-72
2021/01/10 03:24:59;;;;;;;26.13;10.77;;;-2.00;94.60;;;;;;5065132;28;20341;-72
2021/01/10 03:27:24;;;;;;;25.75;10.43;;;-2.00;94.60;;;;;;5048320;28;20180;-71
2021/01/10 03:29:50;;;;;;;23.47;10.20;;;-2.10;94.70;;;;;;5048886;28;20188;-73
2021/01/10 03:32:16;;;;;;;18.43;9.77;;;-2.10;94.90;;;;;;5049697;28;20188;-71
2021/01/10 03:34:42;;;;;;;21.47;9.83;;;-2.10;94.90;;;;;;5050360;28;20306;-71
2021/01/10 03:37:08;;;;;;;26.13;10.73;;;-2.10;94.90;;;;;;5054532;28;20227;-71
2021/01/10 03:39:34;;;;;;;22.92;10.20;;;-2.10;94.80;;;;;;5057152;28;20211;-71
2021/01/10 03:42:00;;;;;;;20.70;10.33;;;-2.20;94.80;;;;;;5052951;28;20682;-72
2021/01/10 03:44:26;;;;;;;21.07;9.10;;;-2.20;94.80;;;;;;5050917;28;21214;-72
2021/01/10 03:46:53;;;;;;;19.75;10.15;;;-2.20;95.00;;;;;;5051195;28;20465;-73
2021/01/10 03:49:18;;;;;;;29.65;11.23;;;-2.20;94.90;;;;;;5051981;28;20207;-71
2021/01/10 03:51:44;;;;;;;26.03;12.53;;;-2.20;94.90;;;;;;5052123;28;20267;-71
2021/01/10 03:54:10;;;;;;;18.53;9.47;;;-2.10;94.90;;;;;;5051225;28;20860;-71
2021/01/10 03:56:35;;;;;;;20.27;10.17;;;-2.10;94.90;;;;;;5051456;28;20891;-71
2021/01/10 03:59:01;;;;;;;20.47;9.93;;;-2.00;94.90;;;;;;5051877;28;20184;-72
2021/01/10 04:01:27;;;;;;;25.60;11.57;;;-2.00;94.70;;;;;;5051839;28;20860;-70
2021/01/10 04:03:53;;;;;;;23.50;10.80;;;-1.90;94.60;;;;;;5052053;28;21913;-71
2021/01/10 04:06:19;;;;;;;23.30;9.90;;;-1.80;94.60;;;;;;5049319;28;20180;-72
2021/01/10 04:08:48;;;;;;;21.48;10.23;;;-1.70;94.50;;;;;;5050879;28;20200;-71
2021/01/10 04:11:14;;;;;;;24.90;11.45;;;-1.70;94.20;;;;;;5051798;28;20196;-72
2021/01/10 04:13:41;;;;;;;30.35;12.65;;;-1.70;93.90;;;;;;5051788;28;20181;-72
2021/01/10 04:16:07;;;;;;;36.17;15.50;;;-1.60;93.90;;;;;;5049154;28;20216;-73
2021/01/10 04:18:33;;;;;;;30.13;15.07;;;-1.60;93.80;;;;;;5054119;28;20188;-72
2021/01/10 04:21:01;;;;;;;33.67;14.10;;;-1.60;94.00;;;;;;5061344;28;20180;-72
2021/01/10 04:23:27;;;;;;;31.13;15.13;;;-1.50;94.10;;;;;;5051161;28;20249;-72
2021/01/10 04:25:52;;;;;;;36.53;17.07;;;-1.50;94.00;;;;;;5049744;28;20662;-72
2021/01/10 04:28:18;;;;;;;37.73;15.87;;;-1.40;94.10;;;;;;5051385;28;20188;-72
2021/01/10 04:30:44;;;;;;;38.53;17.50;;;-1.40;94.10;;;;;;5051287;28;20271;-72
2021/01/10 04:33:09;;;;;;;35.20;15.73;;;-1.40;94.10;;;;;;5051019;28;20208;-72
2021/01/10 04:35:35;;;;;;;28.10;14.40;;;-1.40;94.10;;;;;;5048458;28;20255;-70
2021/01/10 04:38:01;;;;;;;34.90;14.37;;;-1.40;93.90;;;;;;5047913;28;20211;-70
2021/01/10 04:40:27;;;;;;;33.03;16.60;;;-1.40;93.60;;;;;;5049890;28;20192;-70
2021/01/10 04:42:54;;;;;;;30.63;15.40;;;-1.50;93.50;;;;;;5049540;28;20492;-70
2021/01/10 04:45:20;;;;;;;32.33;14.63;;;-1.50;93.50;;;;;;5049386;28;20219;-70
2021/01/10 04:47:46;;;;;;;34.67;14.93;;;-1.50;93.60;;;;;;5049888;28;20277;-70
2021/01/10 04:50:12;;;;;;;28.67;14.35;;;-1.50;93.50;;;;;;5050788;28;20195;-71
2021/01/10 04:52:41;;;;;;;27.88;13.30;;;-1.50;93.50;;;;;;5064000;28;20316;-71
2021/01/10 04:55:08;;;;;;;35.60;13.93;;;-1.40;93.70;;;;;;5035874;28;20985;-71
2021/01/10 04:57:35;;;;;;;27.10;13.40;;;-1.40;93.70;;;;;;5050764;28;20219;-71
2021/01/10 05:00:05;;;;;;;25.58;13.30;;;-1.30;93.20;;;;;;5049731;28;20591;-71
2021/01/10 05:02:32;;;;;;;27.83;13.70;;;-1.30;93.10;;;;;;5050757;28;20780;-71
2021/01/10 05:04:58;;;;;;;29.38;14.05;;;-1.30;93.00;;;;;;5049002;28;20212;-71
2021/01/10 05:07:34;;;;;;;29.80;12.80;;;-1.30;92.90;;;;;;5049282;28;20188;-70
2021/01/10 05:09:59;;;;;;;32.50;12.75;;;-1.30;92.50;;;;;;5050629;28;20282;-71
2021/01/10 05:12:25;;;;;;;23.03;12.33;;;-1.30;92.30;;;;;;5050572;28;20976;-71
2021/01/10 05:14:51;;;;;;;30.17;12.53;;;-1.40;92.30;;;;;;5049189;28;20208;-71
2021/01/10 05:17:20;;;;;;;31.20;13.43;;;-1.30;92.40;;;;;;5050259;28;20683;-71
2021/01/10 05:19:49;;;;;;;23.70;11.38;;;-1.30;92.20;;;;;;5050743;28;20180;-71
2021/01/10 05:22:16;;;;;;;20.58;11.82;;;-1.30;92.30;;;;;;5050526;28;20830;-71
2021/01/10 05:24:49;;;;;;;28.25;12.40;;;-1.20;92.40;;;;;;5048001;28;20299;-71
2021/01/10 05:27:15;;;;;;;23.67;12.85;;;-1.10;92.00;;;;;;5054214;28;20180;-71
2021/01/10 05:29:44;;;;;;;26.53;11.97;;;-1.20;91.60;;;;;;5060129;28;20188;-71
2021/01/10 05:32:11;;;;;;;25.73;12.00;;;-1.20;91.50;;;;;;5054211;28;20195;-71
2021/01/10 05:34:37;;;;;;;27.25;11.07;;;-1.20;91.50;;;;;;5049646;28;20247;-71
2021/01/10 05:37:15;;;;;;;20.37;11.93;;;-1.20;91.40;;;;;;5055022;28;20760;-71
2021/01/10 05:39:45;;;;;;;29.73;12.35;;;-1.20;91.60;;;;;;5070329;28;20422;-70
2021/01/10 05:42:12;;;;;;;24.92;12.98;;;-1.10;91.80;;;;;;5069042;28;20179;-72
2021/01/10 05:44:43;;;;;;;29.02;12.80;;;-1.00;92.00;;;;;;5068832;28;20562;-72
2021/01/10 05:47:16;;;;;;;31.00;14.45;;;-1.00;92.00;;;;;;5070124;28;20256;-71
2021/01/10 05:49:50;;;;;;;30.10;13.73;;;-1.10;91.40;;;;;;5070175;28;20191;-72
2021/01/10 05:52:17;;;;;;;27.63;13.25;;;-1.20;91.50;;;;;;5058791;28;20200;-72
2021/01/10 05:54:45;;;;;;;28.20;12.20;;;-1.30;91.70;;;;;;5051004;28;20208;-72
2021/01/10 05:57:13;;;;;;;30.35;13.98;;;-1.30;91.90;;;;;;5054458;28;20204;-72
2021/01/10 05:59:49;;;;;;;25.13;13.25;;;-1.40;92.00;;;;;;5049541;28;20276;-72
2021/01/10 06:02:36;;;;;;;26.23;13.65;;;-1.40;92.20;;;;;;5048864;28;20234;-72
2021/01/10 06:05:16;;;;;;;28.98;13.18;;;-1.40;92.40;;;;;;5047035;28;20208;-72
2021/01/10 06:07:42;;;;;;;31.83;14.25;;;-1.40;92.70;;;;;;5053359;28;20716;-73
2021/01/10 06:10:09;;;;;;;28.70;13.90;;;-1.40;92.70;;;;;;5070242;28;20199;-73
2021/01/10 06:12:36;;;;;;;27.48;12.80;;;-1.40;92.90;;;;;;5066453;28;20184;-72
2021/01/10 06:15:32;;;;;;;26.33;12.95;;;-1.40;93.00;;;;;;5048533;28;20275;-72
2021/01/10 06:18:01;;;;;;;26.52;13.60;;;-1.30;92.80;;;;;;5048348;28;20270;-71
2021/01/10 06:20:29;;;;;;;27.40;12.88;;;-1.30;92.70;;;;;;5050260;28;20184;-72
2021/01/10 06:22:57;;;;;;;29.67;13.60;;;-1.20;92.80;;;;;;5059593;28;20188;-71
2021/01/10 06:25:27;;;;;;;29.33;12.73;;;-1.20;92.50;;;;;;5063836;28;20209;-72
2021/01/10 06:28:19;;;;;;;26.05;13.15;;;-1.20;92.30;;;;;;5060558;28;20267;-73
2021/01/10 06:30:54;;;;;;;29.70;13.77;;;-1.20;92.30;;;;;;5070378;28;20274;-72
2021/01/10 06:33:29;;;;;;;30.77;12.88;;;-1.20;92.30;;;;;;5056665;28;20232;-72
2021/01/10 06:36:00;;;;;;;24.67;12.82;;;-1.10;92.20;;;;;;5057746;28;20183;-72
2021/01/10 06:38:32;;;;;;;22.35;12.25;;;-1.00;91.90;;;;;;5053962;28;20347;-72
2021/01/10 06:41:24;;;;;;;23.98;11.88;;;-1.00;91.90;;;;;;5052074;28;20180;-73
2021/01/10 06:43:58;;;;;;;27.33;13.82;;;-1.00;91.80;;;;;;5050699;28;20204;-71
2021/01/10 06:46:24;;;;;;;28.27;13.10;;;-1.00;91.80;;;;;;5051708;28;20184;-71
2021/01/10 06:48:51;;;;;;;28.02;12.85;;;-0.90;91.70;;;;;;5063653;28;20202;-72
2021/01/10 06:51:18;;;;;;;28.63;12.70;;;-0.90;91.50;;;;;;5052861;28;20192;-71
2021/01/10 06:53:43;;;;;;;32.75;13.68;;;-0.90;91.40;;;;;;5067846;28;20234;-70
2021/01/10 06:56:09;;;;;;;25.30;11.70;;;-0.90;91.40;;;;;;5051285;28;20189;-71
2021/01/10 06:58:35;;;;;;;21.73;11.50;;;-0.80;90.90;;;;;;5049225;28;20717;-71
2021/01/10 07:01:01;;;;;;;28.77;11.70;;;-0.90;90.90;;;;;;5048657;28;20177;-71
2021/01/10 07:03:27;;;;;;;28.92;13.32;;;-1.00;91.10;;;;;;5048947;28;20551;-71
2021/01/10 07:05:56;;;;;;;28.10;11.65;;;-1.00;91.20;;;;;;5047930;28;20656;-71
2021/01/10 07:08:44;;;;;;;28.42;11.50;;;-1.00;91.20;;;;;;5047964;28;20204;-73
2021/01/10 07:11:22;;;;;;;25.08;12.30;;;-0.90;91.30;;;;;;5049339;28;20188;-71
2021/01/10 07:13:48;;;;;;;24.02;12.23;;;-1.00;91.10;;;;;;5049223;28;20718;-72
2021/01/10 07:16:25;;;;;;;24.33;12.38;;;-1.00;91.20;;;;;;5054462;28;20184;-71
2021/01/10 07:18:55;;;;;;;32.78;12.95;;;-1.00;91.20;;;;;;5053554;28;20184;-73
2021/01/10 07:21:39;;;;;;;27.50;13.10;;;-1.00;91.10;;;;;;5059684;28;20187;-71
2021/01/10 07:24:16;;;;;;;23.15;12.70;;;-1.00;91.20;;;;;;5051736;28;20294;-72
2021/01/10 07:26:49;;;;;;;28.27;12.95;;;-1.00;91.30;;;;;;5050817;28;20821;-71
2021/01/10 07:29:44;;;;;;;29.38;12.48;;;-0.90;91.30;;;;;;5037931;28;20291;-73
2021/01/10 07:32:15;;;;;;;25.67;12.35;;;-0.90;91.30;;;;;;5049990;28;20858;-72
2021/01/10 07:34:44;;;;;;;23.83;12.10;;;-0.80;91.40;;;;;;5049470;28;20215;-72
2021/01/10 07:37:16;;;;;;;29.83;12.43;;;-0.80;91.10;;;;;;5056310;28;20646;-73
2021/01/10 07:40:03;;;;;;;29.55;11.90;;;-0.80;91.00;;;;;;5057691;28;20192;-73
2021/01/10 07:42:30;;;;;;;31.45;13.80;;;-0.80;90.90;;;;;;5051402;28;20194;-72
2021/01/10 07:45:02;;;;;;;34.25;14.18;;;-0.80;90.90;;;;;;5064212;28;20212;-71
2021/01/10 07:47:34;;;;;;;31.10;12.93;;;-0.80;91.00;;;;;;5059439;28;20280;-71
2021/01/10 07:50:04;;;;;;;24.90;12.05;;;-0.80;91.10;;;;;;5051103;28;20188;-72
2021/01/10 07:52:42;;;;;;;26.45;12.23;;;-0.80;91.20;;;;;;5050712;28;20189;-72
2021/01/10 07:55:20;;;;;;;27.83;13.30;;;-0.80;91.20;;;;;;5035038;28;20807;-71
2021/01/10 07:57:47;;;;;;;27.40;13.63;;;-0.80;91.00;;;;;;5061180;28;20211;-71
2021/01/10 08:00:18;;;;;;;23.33;12.20;;;-0.80;91.00;;;;;;5069185;28;20187;-71
2021/01/10 08:02:44;;;;;;;28.73;12.63;;;-0.80;91.00;;;;;;5053027;28;20196;-70
2021/01/10 08:05:14;;;;;;;26.15;13.35;;;-0.80;91.10;;;;;;5058064;28;20214;-70
2021/01/10 08:07:46;;;;;;;27.05;12.63;;;-0.80;91.00;;;;;;5051277;28;20196;-72
2021/01/10 08:10:13;;;;;;;26.77;12.70;;;-0.70;90.90;;;;;;5048092;28;20264;-73
2021/01/10 08:12:40;;;;;;;28.63;13.02;;;-0.70;90.80;;;;;;5048381;28;20192;-72
2021/01/10 08:15:07;;;;;;;29.38;12.77;;;-0.70;90.70;;;;;;5049158;28;20211;-71
2021/01/10 08:17:36;;;;;;;29.00;13.05;;;-0.70;90.80;;;;;;5063528;28;20282;-72
2021/01/10 08:20:03;;;;;;;24.70;13.82;;;-0.60;90.80;;;;;;5062577;28;20229;-72
2021/01/10 08:22:29;;;;;;;27.80;12.95;;;-0.60;90.70;;;;;;5050816;28;20180;-70
2021/01/10 08:24:55;;;;;;;34.47;14.10;;;-0.60;90.70;;;;;;5049034;28;20219;-71
2021/01/10 08:27:21;;;;;;;29.47;12.87;;;-0.60;90.50;;;;;;5051101;28;20433;-71
2021/01/10 08:29:47;;;;;;;28.73;12.93;;;-0.60;90.50;;;;;;5049942;28;20192;-71
2021/01/10 08:32:14;;;;;;;25.77;13.88;;;-0.60;90.50;;;;;;5050720;28;20248;-71
2021/01/10 08:35:01;;;;;;;32.15;14.15;;;-0.60;90.70;;;;;;5048879;28;20255;-72
2021/01/10 08:37:27;;;;;;;31.38;14.35;;;-0.50;90.80;;;;;;5039796;28;20702;-71
2021/01/10 08:40:03;;;;;;;29.83;13.60;;;-0.40;90.50;;;;;;5049212;28;20181;-72
2021/01/10 08:42:32;;;;;;;29.73;14.23;;;-0.60;90.20;;;;;;5049036;28;20505;-71
2021/01/10 08:45:18;;;;;;;25.33;12.95;;;-0.60;90.70;;;;;;5046832;28;20235;-71
2021/01/10 08:47:45;;;;;;;33.85;15.07;;;-0.60;90.90;;;;;;5049565;28;20295;-70
2021/01/10 08:50:13;;;;;;;34.97;14.25;;;-0.40;90.90;;;;;;5049198;28;20215;-72
2021/01/10 08:52:58;;;;;;;32.58;14.00;;;-0.40;90.80;;;;;;5047524;28;20212;-72
2021/01/10 08:55:34;;;;;;;30.88;13.75;;;-0.50;90.50;;;;;;5037472;28;20706;-72
2021/01/10 08:58:01;;;;;;;23.70;12.15;;;-0.40;90.50;;;;;;5045315;28;20265;-72
2021/01/10 09:00:29;;;;;;;24.48;13.57;;;-0.30;90.70;;;;;;5050956;28;20871;-72
2021/01/10 09:03:11;;;;;;;30.10;14.65;;;-0.20;90.20;;;;;;5051033;28;20200;-71
2021/01/10 09:05:36;;;;;;;29.77;14.13;;;-0.30;89.70;;;;;;5050234;28;20603;-71
2021/01/10 09:08:05;;;;;;;27.93;13.50;;;-0.30;90.10;;;;;;5049734;28;20279;-71
2021/01/10 09:10:32;;;;;;;32.25;13.93;;;-0.30;90.00;;;;;;5063921;28;20270;-71
2021/01/10 09:13:07;;;;;;;27.05;13.23;;;-0.30;90.00;;;;;;5070351;28;20238;-72
2021/01/10 09:15:37;;;;;;;33.63;15.25;;;-0.20;90.30;;;;;;5055813;28;20670;-72
2021/01/10 09:18:11;;;;;;;29.45;14.25;;;-0.10;90.20;;;;;;5052668;28;20581;-74
2021/01/10 09:20:50;;;;;;;28.52;14.20;;;-0.10;89.60;;;;;;5037837;28;20192;-72
2021/01/10 09:23:17;;;;;;;25.02;12.60;;;-0.10;89.50;;;;;;5053639;28;20184;-72
2021/01/10 09:25:43;;;;;;;25.70;13.38;;;-0.20;89.60;;;;;;5060441;28;20292;-72
2021/01/10 09:28:15;;;;;;;28.17;13.67;;;-0.30;89.90;;;;;;5063874;28;20601;-71
2021/01/10 09:30:50;;;;;;;24.73;13.88;;;-0.30;90.10;;;;;;5051492;28;20573;-72
2021/01/10 09:33:22;;;;;;;29.90;15.00;;;-0.20;90.40;;;;;;5061871;28;20196;-73
2021/01/10 09:35:48;;;;;;;30.33;14.35;;;-0.30;90.40;;;;;;5048456;28;20727;-72
2021/01/10 09:38:14;;;;;;;26.08;13.40;;;-0.20;90.50;;;;;;5049992;28;20311;-72
2021/01/10 09:40:59;;;;;;;29.48;13.82;;;-0.10;90.20;;;;;;5050703;28;20192;-73
2021/01/10 09:43:34;;;;;;;25.05;11.68;;;0.00;90.10;;;;;;5038119;28;20279;-73
2021/01/10 09:46:00;;;;;;;31.00;11.93;;;0.00;89.50;;;;;;5049189;28;20188;-72
2021/01/10 09:48:26;;;;;;;23.23;13.10;;;0.00;89.20;;;;;;5048430;28;20200;-72
2021/01/10 09:50:52;;;;;;;22.53;11.80;;;0.00;89.20;;;;;;5050428;28;20192;-71
2021/01/10 09:53:27;;;;;;;25.30;12.03;;;0.10;89.30;;;;;;5050200;28;20441;-73
2021/01/10 09:55:53;;;;;;;23.73;12.02;;;0.10;89.30;;;;;;5049408;28;20422;-70
2021/01/10 09:58:18;;;;;;;25.85;12.95;;;0.10;89.20;;;;;;5049470;28;20204;-70
2021/01/10 10:00:57;;;;;;;27.47;12.13;;;0.20;89.50;;;;;;5049987;28;20266;-70
2021/01/10 10:03:24;;;;;;;24.80;12.70;;;0.20;88.70;;;;;;5049762;28;20176;-71
2021/01/10 10:05:57;;;;;;;19.85;11.55;;;0.10;88.60;;;;;;5048135;28;20236;-72
2021/01/10 10:08:23;;;;;;;26.80;12.90;;;0.10;89.20;;;;;;5060232;28;20718;-71
2021/01/10 10:10:48;;;;;;;31.63;13.07;;;0.20;89.50;;;;;;5053682;28;20188;-71
2021/01/10 10:13:22;;;;;;;20.73;11.90;;;0.30;89.30;;;;;;5058128;28;20188;-71
2021/01/10 10:15:53;;;;;;;21.83;11.55;;;0.40;88.70;;;;;;5051972;28;20443;-71
2021/01/10 10:18:27;;;;;;;26.55;12.23;;;0.50;88.00;;;;;;5051185;28;20574;-70
2021/01/10 10:20:53;;;;;;;20.08;9.88;;;0.50;87.80;;;;;;5050738;28;20271;-72
2021/01/10 10:23:19;;;;;;;21.70;11.23;;;0.50;87.00;;;;;;5050517;28;20371;-72
2021/01/10 10:25:49;;;;;;;25.45;12.07;;;0.50;87.30;;;;;;5048771;28;20207;-71
2021/01/10 10:28:16;;;;;;;24.38;10.95;;;0.50;87.40;;;;;;5063643;28;20241;-71
2021/01/10 10:30:46;;;;;;;22.00;10.00;;;0.60;87.60;;;;;;5064277;28;20181;-71
2021/01/10 10:33:12;;;;;;;23.00;12.70;;;0.70;87.10;;;;;;5049846;28;20806;-73
2021/01/10 10:35:39;;;;;;;21.15;10.43;;;0.80;86.60;;;;;;5049209;28;20283;-73
2021/01/10 10:38:05;;;;;;;22.65;11.48;;;1.00;86.00;;;;;;5049734;28;20219;-74
2021/01/10 10:40:32;;;;;;;22.27;10.13;;;1.10;84.60;;;;;;5054051;28;20234;-73
2021/01/10 10:42:58;;;;;;;24.45;10.50;;;1.30;83.80;;;;;;5058795;28;20199;-74
2021/01/10 10:45:23;;;;;;;22.20;11.03;;;1.40;82.80;;;;;;5067243;28;20252;-75
2021/01/10 10:47:49;;;;;;;26.03;12.23;;;1.50;81.40;;;;;;5053814;28;20858;-74
2021/01/10 10:50:15;;;;;;;18.87;10.50;;;1.60;80.90;;;;;;5070645;28;20799;-73
2021/01/10 10:52:42;;;;;;;27.10;11.20;;;1.80;81.10;;;;;;5051890;28;20506;-74
2021/01/10 10:55:08;;;;;;;23.65;11.50;;;1.70;80.60;;;;;;5048053;28;20200;-75
2021/01/10 10:57:35;;;;;;;22.73;11.77;;;1.80;80.80;;;;;;5048921;28;20204;-73
2021/01/10 11:00:03;;;;;;;20.90;11.20;;;1.70;80.30;;;;;;5047369;28;20844;-76
2021/01/10 11:02:29;;;;;;;18.92;10.32;;;1.60;80.80;;;;;;5055254;28;20678;-73
2021/01/10 11:04:55;;;;;;;19.37;9.20;;;1.60;80.00;;;;;;5048304;28;20208;-74
2021/01/10 11:07:20;;;;;;;19.87;9.43;;;1.60;79.00;;;;;;5049225;28;20222;-74
2021/01/10 11:09:46;;;;;;;20.50;9.70;;;1.50;79.00;;;;;;5048613;28;20669;-73
2021/01/10 11:12:13;;;;;;;16.27;9.33;;;1.50;79.00;;;;;;5050519;28;20272;-72
2021/01/10 11:14:40;;;;;;;20.02;9.75;;;1.50;79.30;;;;;;5059658;28;20270;-73
2021/01/10 11:17:07;;;;;;;18.05;10.10;;;1.50;79.90;;;;;;5061800;28;20208;-74
2021/01/10 11:19:33;;;;;;;21.55;10.48;;;1.40;80.50;;;;;;5047932;28;20199;-74
2021/01/10 11:22:03;;;;;;;29.55;11.77;;;1.30;80.90;;;;;;5047278;28;20181;-74
2021/01/10 11:24:29;;;;;;;20.75;11.07;;;1.30;81.40;;;;;;5049680;28;20201;-74
2021/01/10 11:26:55;;;;;;;20.40;10.65;;;1.30;82.10;;;;;;5051122;28;20195;-74
2021/01/10 11:29:21;;;;;;;22.45;11.82;;;1.30;82.10;;;;;;5057594;28;20238;-75
2021/01/10 11:31:47;;;;;;;18.00;10.50;;;1.30;82.20;;;;;;5050202;28;20935;-75
2021/01/10 11:34:13;;;;;;;18.07;9.63;;;1.30;82.50;;;;;;5058388;28;20269;-73
2021/01/10 11:36:53;;;;;;;19.08;10.25;;;1.20;81.80;;;;;;5048423;28;20215;-73
2021/01/10 11:39:21;;;;;;;21.17;10.63;;;1.10;81.50;;;;;;5047593;28;20187;-73
2021/01/10 11:41:52;;;;;;;23.55;11.48;;;1.10;81.80;;;;;;5046946;28;20195;-73
2021/01/10 11:44:19;;;;;;;18.67;9.70;;;1.20;81.80;;;;;;5045776;28;20200;-73
2021/01/10 11:46:49;;;;;;;21.10;11.63;;;1.10;82.20;;;;;;5046760;28;20577;-73
2021/01/10 11:49:16;;;;;;;17.60;10.38;;;1.20;82.10;;;;;;5046824;28;20215;-73
2021/01/10 11:51:42;;;;;;;20.75;9.85;;;1.30;82.10;;;;;;5068303;28;20272;-74
2021/01/10 11:54:08;;;;;;;22.95;10.52;;;1.40;81.50;;;;;;5066918;28;20565;-74
2021/01/10 11:56:34;;;;;;;18.37;9.20;;;1.30;80.90;;;;;;5054602;28;20184;-72
2021/01/10 11:59:00;;;;;;;21.85;9.90;;;1.30;81.40;;;;;;5048446;28;20419;-73
2021/01/10 12:01:36;;;;;;;23.40;10.82;;;1.30;81.70;;;;;;5049218;28;20189;-72
2021/01/10 12:04:03;;;;;;;20.95;11.30;;;1.30;81.90;;;;;;5052277;28;20203;-73
2021/01/10 12:06:29;;;;;;;21.50;9.88;;;1.30;82.10;;;;;;5052706;28;20191;-73
2021/01/10 12:08:55;;;;;;;20.27;9.97;;;1.30;82.50;;;;;;5052015;28;20185;-74
2021/01/10 12:11:22;;;;;;;21.17;10.15;;;1.40;82.70;;;;;;5051877;28;20430;-73
2021/01/10 12:13:48;;;;;;;18.35;9.45;;;1.50;82.10;;;;;;5052133;28;20219;-72
2021/01/10 12:16:15;;;;;;;15.93;9.17;;;1.60;81.20;;;;;;5051298;28;20176;-72
2021/01/10 12:18:42;;;;;;;15.30;8.52;;;1.60;80.20;;;;;;5051487;28;21043;-72
2021/01/10 12:21:11;;;;;;;18.88;8.95;;;1.80;80.00;;;;;;5052407;28;20583;-74
2021/01/10 12:23:37;;;;;;;19.52;7.93;;;1.90;79.60;;;;;;5055411;28;20176;-73
2021/01/10 12:26:13;;;;;;;15.20;7.68;;;2.10;78.00;;;;;;5062202;28;20208;-74
2021/01/10 12:28:41;;;;;;;16.20;7.57;;;2.00;75.90;;;;;;5051554;28;20298;-73
2021/01/10 12:31:07;;;;;;;15.45;7.47;;;1.90;75.50;;;;;;5063188;28;20245;-73
2021/01/10 12:33:33;;;;;;;12.63;6.53;;;1.90;75.50;;;;;;5053974;28;20203;-74
2021/01/10 12:36:03;;;;;;;14.32;6.78;;;1.90;76.10;;;;;;5061622;28;20198;-74
2021/01/10 12:38:29;;;;;;;18.95;7.85;;;1.80;76.20;;;;;;5054872;28;20204;-73
2021/01/10 12:40:55;;;;;;;12.80;6.63;;;1.90;76.40;;;;;;5056593;28;20180;-73